createdAt,value
2022-12-13T00:02:38.023Z,26.30
2022-12-13T00:08:31.461Z,26.37
2022-12-13T00:14:24.877Z,27.90
2022-12-13T00:20:19.812Z,31.50
2022-12-13T00:26:15.140Z,25.20
2022-12-13T00:32:08.695Z,28.63
2022-12-13T00:38:03.054Z,29.33
2022-12-13T00:43:56.437Z,26.47
2022-12-13T00:49:49.841Z,30.73
2022-12-13T00:55:44.575Z,26.23
2022-12-13T01:01:38.381Z,29.37
2022-12-13T01:07:31.931Z,25.77
2022-12-13T01:13:26.671Z,26.33
2022-12-13T01:19:20.125Z,27.30
2022-12-13T01:25:14.921Z,27.17
2022-12-13T01:31:11.471Z,29.63
2022-12-13T01:37:05.001Z,24.53
2022-12-13T01:42:58.393Z,29.77
2022-12-13T01:49:00.957Z,25.70
2022-12-13T01:54:57.148Z,29.00
2022-12-13T02:00:58.144Z,25.17
2022-12-13T02:06:54.153Z,25.70
2022-12-13T02:12:47.968Z,25.70
2022-12-13T02:18:58.265Z,24.77
2022-12-13T02:25:21.914Z,25.53
2022-12-13T02:31:31.370Z,26.70
2022-12-13T02:37:28.945Z,22.67
2022-12-13T02:43:33.513Z,25.77
2022-12-13T02:49:33.884Z,22.03
2022-12-13T02:55:28.449Z,25.27
2022-12-13T03:01:40.412Z,24.00
2022-12-13T03:07:46.025Z,23.60
2022-12-13T03:13:48.616Z,22.93
2022-12-13T03:19:42.285Z,25.00
2022-12-13T03:25:37.497Z,23.13
2022-12-13T03:31:31.198Z,25.50
2022-12-13T03:37:24.702Z,24.40
2022-12-13T03:43:22.487Z,25.60
2022-12-13T03:49:17.489Z,20.37
2022-12-13T03:55:11.254Z,20.47
2022-12-13T04:01:07.075Z,24.07
2022-12-13T04:07:00.438Z,24.60
2022-12-13T04:13:12.157Z,22.87
2022-12-13T04:19:07.066Z,22.70
2022-12-13T04:25:00.554Z,21.83
2022-12-13T04:30:54.217Z,23.70
2022-12-13T04:36:49.141Z,23.80
2022-12-13T04:42:42.674Z,22.87
2022-12-13T04:48:36.161Z,25.87
2022-12-13T04:54:36.149Z,21.63
2022-12-13T05:00:30.308Z,23.77
2022-12-13T05:06:26.793Z,24.27
2022-12-13T05:12:23.605Z,24.20
2022-12-13T05:18:16.805Z,24.90
2022-12-13T05:24:10.372Z,23.27
2022-12-13T05:30:06.225Z,25.60
2022-12-13T05:36:01.971Z,22.00
2022-12-13T05:41:56.639Z,24.10
2022-12-13T05:47:57.103Z,20.07
2022-12-13T05:53:53.380Z,28.87
2022-12-13T05:59:47.058Z,27.03
2022-12-13T06:05:43.492Z,26.47
2022-12-13T06:11:43.227Z,25.97
2022-12-13T06:17:37.748Z,21.73
2022-12-13T06:23:33.715Z,20.50
2022-12-13T06:29:27.140Z,22.20
2022-12-13T06:35:29.946Z,24.90
2022-12-13T06:41:30.531Z,23.73
2022-12-13T06:47:32.121Z,21.17
2022-12-13T06:59:54.048Z,24.73
2022-12-13T07:05:48.998Z,24.73
2022-12-13T07:11:51.446Z,26.00
2022-12-13T07:17:50.062Z,28.57
2022-12-13T07:23:44.060Z,24.10
2022-12-13T07:29:37.654Z,27.40
2022-12-13T07:35:37.128Z,26.03
2022-12-13T07:41:33.114Z,29.47
2022-12-13T07:47:30.668Z,25.93
2022-12-13T07:53:25.192Z,22.50
2022-12-13T07:59:28.199Z,19.57
2022-12-13T08:05:27.173Z,18.00
2022-12-13T08:11:22.238Z,16.10
2022-12-13T08:17:15.531Z,17.73
2022-12-13T08:23:10.717Z,14.00
2022-12-13T08:29:05.595Z,16.93
2022-12-13T08:34:59.073Z,12.00
2022-12-13T08:40:52.687Z,11.27
2022-12-13T08:46:47.668Z,11.40
2022-12-13T08:52:42.406Z,16.37
2022-12-13T08:58:35.759Z,22.20
2022-12-13T09:04:31.828Z,16.20
2022-12-13T09:10:27.860Z,17.20
2022-12-13T09:16:24.373Z,17.87
2022-12-13T09:22:33.489Z,17.70
2022-12-13T09:28:42.774Z,16.00
2022-12-13T09:34:36.252Z,19.77
2022-12-13T09:40:31.874Z,19.73
2022-12-13T09:46:44.937Z,18.03
2022-12-13T09:52:40.887Z,19.83
2022-12-13T09:58:37.028Z,20.27
2022-12-13T10:04:30.625Z,19.30
2022-12-13T10:10:24.170Z,20.87
2022-12-13T10:16:25.829Z,22.47
2022-12-13T10:22:20.627Z,22.27
2022-12-13T10:28:15.634Z,19.87
2022-12-13T10:34:21.402Z,18.90
2022-12-13T10:40:33.082Z,23.10
2022-12-13T10:46:31.529Z,21.07
2022-12-13T10:52:43.348Z,22.73
2022-12-13T10:58:41.357Z,20.10
2022-12-13T11:04:36.517Z,22.53
2022-12-13T11:10:31.001Z,18.00
2022-12-13T11:16:28.138Z,18.63
2022-12-13T11:22:25.037Z,22.20
2022-12-13T11:28:37.303Z,20.23
2022-12-13T11:34:40.282Z,18.00
2022-12-13T11:40:35.839Z,19.13
2022-12-13T11:46:38.613Z,17.30
2022-12-13T11:52:37.713Z,21.60
2022-12-13T11:59:09.578Z,19.27
2022-12-13T12:05:00.156Z,19.00
2022-12-13T12:11:03.965Z,21.27
2022-12-13T12:17:00.377Z,22.53
2022-12-13T12:23:05.706Z,19.57
2022-12-13T12:29:32.178Z,21.20
2022-12-13T12:35:59.165Z,17.83
2022-12-13T12:42:05.453Z,20.23
2022-12-13T12:54:37.577Z,17.40
2022-12-13T13:00:40.524Z,18.20
2022-12-13T13:06:40.093Z,20.00
2022-12-13T13:12:42.966Z,17.43
2022-12-13T13:18:52.390Z,18.10
2022-12-13T13:25:02.273Z,19.33
2022-12-13T13:31:08.096Z,24.63
2022-12-13T13:37:04.246Z,19.90
2022-12-13T13:43:17.162Z,18.43
2022-12-13T13:49:13.435Z,20.03
2022-12-13T13:55:33.274Z,19.77
2022-12-13T14:02:03.804Z,17.53
2022-12-13T14:08:20.612Z,21.60
2022-12-13T14:15:01.295Z,21.67
2022-12-13T14:21:04.088Z,22.20
2022-12-13T14:27:16.657Z,21.60
2022-12-13T14:33:20.859Z,17.10
2022-12-13T14:39:25.365Z,19.90
2022-12-13T14:45:26.161Z,18.93
2022-12-13T14:51:34.956Z,18.40
2022-12-13T14:57:31.944Z,23.47
2022-12-13T15:03:29.322Z,23.07
2022-12-13T15:09:23.140Z,20.40
2022-12-13T15:15:25.493Z,24.20
2022-12-13T15:21:28.129Z,22.73
2022-12-13T15:27:25.317Z,20.17
2022-12-13T15:33:27.602Z,20.50
2022-12-13T15:39:26.528Z,17.67
2022-12-13T15:45:22.159Z,21.00
2022-12-13T15:51:28.963Z,22.03
2022-12-13T15:57:25.585Z,18.10
2022-12-13T16:03:23.191Z,19.40
2022-12-13T16:09:21.202Z,20.47
2022-12-13T16:15:28.735Z,21.47
2022-12-13T16:21:22.704Z,20.97
2022-12-13T16:27:17.700Z,21.40
2022-12-13T16:33:29.502Z,23.37
2022-12-13T16:39:22.836Z,22.63
2022-12-13T16:45:40.970Z,21.07
2022-12-13T16:51:31.849Z,23.53
2022-12-13T16:57:25.332Z,23.33
2022-12-13T17:03:20.478Z,26.60
2022-12-13T17:09:13.961Z,22.23
2022-12-13T17:15:09.000Z,24.30
2022-12-13T17:21:09.738Z,29.10
2022-12-13T17:27:03.114Z,27.03
2022-12-13T17:33:00.071Z,28.93
2022-12-13T17:38:54.901Z,26.73
2022-12-13T17:44:48.512Z,23.57
2022-12-13T17:50:42.356Z,22.93
2022-12-13T17:56:37.230Z,22.53
2022-12-13T18:02:30.785Z,23.40
2022-12-13T18:08:24.100Z,25.33
2022-12-13T18:14:18.983Z,23.40
2022-12-13T18:20:12.919Z,24.63
2022-12-13T18:26:09.622Z,23.87
2022-12-13T18:32:03.988Z,25.30
2022-12-13T18:37:57.596Z,23.33
2022-12-13T18:43:56.289Z,26.27
2022-12-13T18:49:55.033Z,23.40
2022-12-13T18:55:49.476Z,26.33
2022-12-13T19:01:43.179Z,23.03
2022-12-13T19:07:38.408Z,24.40
2022-12-13T19:13:33.240Z,22.70
2022-12-13T19:19:26.848Z,27.27
2022-12-13T19:25:21.977Z,29.10
2022-12-13T19:31:16.755Z,27.43
2022-12-13T19:37:11.017Z,26.63
2022-12-13T19:43:05.393Z,26.13
2022-12-13T19:48:58.409Z,29.87
2022-12-13T19:54:52.004Z,26.83
2022-12-13T20:00:46.844Z,29.83
2022-12-13T20:06:40.255Z,30.67
2022-12-13T20:12:38.853Z,29.40
2022-12-13T20:18:36.211Z,31.13
2022-12-13T20:24:30.124Z,27.70
2022-12-13T20:30:23.604Z,28.47
2022-12-13T20:36:25.481Z,24.60
2022-12-13T20:42:19.770Z,19.60
2022-12-13T20:48:13.318Z,23.73
2022-12-13T20:54:08.542Z,22.80
2022-12-13T21:00:02.001Z,24.17
2022-12-13T21:05:55.392Z,23.20
2022-12-13T21:11:50.936Z,26.30
2022-12-13T21:17:44.414Z,23.60
2022-12-13T21:23:38.329Z,25.47
2022-12-13T21:29:33.350Z,27.73
2022-12-13T21:35:26.828Z,22.20
2022-12-13T21:41:20.381Z,23.43
2022-12-13T21:47:14.821Z,29.47
2022-12-13T21:53:08.314Z,26.47
2022-12-13T21:59:17.608Z,32.80
2022-12-13T22:05:13.951Z,24.10
2022-12-13T22:11:21.338Z,20.60
2022-12-13T22:17:17.330Z,24.90
2022-12-13T22:23:12.844Z,24.07
2022-12-13T22:29:06.405Z,24.73
2022-12-13T22:35:00.048Z,22.97
2022-12-13T22:40:54.844Z,23.57
2022-12-13T22:46:48.721Z,22.77
2022-12-13T22:52:42.118Z,23.17
2022-12-13T22:58:37.321Z,19.33
2022-12-13T23:04:30.531Z,22.13
2022-12-13T23:10:46.955Z,19.20
2022-12-13T23:16:42.766Z,20.40
2022-12-13T23:22:35.884Z,21.37
2022-12-13T23:28:29.835Z,21.07
2022-12-13T23:34:24.755Z,21.97
2022-12-13T23:40:18.382Z,23.33
2022-12-13T23:46:14.665Z,17.60
2022-12-13T23:52:09.485Z,19.20
2022-12-13T23:58:02.888Z,20.10
